sensor_id;sensor_type;location;lat;lon;timestamp;P1;durP1;ratioP1;P2;durP2;ratioP2
69053;SDS011;56125;52.242;4.756;2023-04-19T00:01:37;4.05;;;2.20;;
69053;SDS011;56125;52.242;4.756;2023-04-19T00:06:39;3.10;;;2.30;;
69053;SDS011;56125;52.242;4.756;2023-04-19T00:11:41;3.17;;;2.17;;
69053;SDS011;56125;52.242;4.756;2023-04-19T00:16:42;3.00;;;2.40;;
69053;SDS011;56125;52.242;4.756;2023-04-19T00:21:43;3.95;;;2.47;;
69053;SDS011;56125;52.242;4.756;2023-04-19T00:26:44;3.75;;;2.20;;
69053;SDS011;56125;52.242;4.756;2023-04-19T00:31:45;3.13;;;2.40;;
69053;SDS011;56125;52.242;4.756;2023-04-19T00:36:46;3.40;;;2.03;;
69053;SDS011;56125;52.242;4.756;2023-04-19T00:41:47;4.82;;;2.28;;
69053;SDS011;56125;52.242;4.756;2023-04-19T00:46:48;2.88;;;2.30;;
69053;SDS011;56125;52.242;4.756;2023-04-19T00:51:51;3.42;;;2.33;;
69053;SDS011;56125;52.242;4.756;2023-04-19T00:56:53;2.50;;;2.20;;
69053;SDS011;56125;52.242;4.756;2023-04-19T01:01:55;2.72;;;2.30;;
69053;SDS011;56125;52.242;4.756;2023-04-19T01:06:56;3.25;;;2.28;;
69053;SDS011;56125;52.242;4.756;2023-04-19T01:11:57;3.42;;;2.55;;
69053;SDS011;56125;52.242;4.756;2023-04-19T01:17:01;2.45;;;2.10;;
69053;SDS011;56125;52.242;4.756;2023-04-19T01:22:02;3.03;;;2.55;;
69053;SDS011;56125;52.242;4.756;2023-04-19T01:27:03;2.45;;;2.25;;
69053;SDS011;56125;52.242;4.756;2023-04-19T01:32:04;3.83;;;2.47;;
69053;SDS011;56125;52.242;4.756;2023-04-19T01:37:05;2.65;;;1.90;;
69053;SDS011;56125;52.242;4.756;2023-04-19T01:42:06;4.75;;;2.60;;
69053;SDS011;56125;52.242;4.756;2023-04-19T01:47:07;3.53;;;2.28;;
69053;SDS011;56125;52.242;4.756;2023-04-19T01:52:08;4.75;;;2.70;;
69053;SDS011;56125;52.242;4.756;2023-04-19T01:57:09;3.17;;;2.20;;
69053;SDS011;56125;52.242;4.756;2023-04-19T02:02:10;3.78;;;2.70;;
69053;SDS011;56125;52.242;4.756;2023-04-19T02:07:11;3.13;;;2.33;;
69053;SDS011;56125;52.242;4.756;2023-04-19T02:12:12;4.07;;;2.65;;
69053;SDS011;56125;52.242;4.756;2023-04-19T02:17:13;3.50;;;2.28;;
69053;SDS011;56125;52.242;4.756;2023-04-19T02:22:14;3.60;;;2.40;;
69053;SDS011;56125;52.242;4.756;2023-04-19T02:27:15;3.72;;;2.47;;
69053;SDS011;56125;52.242;4.756;2023-04-19T02:32:17;4.45;;;2.55;;
69053;SDS011;56125;52.242;4.756;2023-04-19T02:37:18;3.60;;;2.70;;
69053;SDS011;56125;52.242;4.756;2023-04-19T02:42:19;5.00;;;2.53;;
69053;SDS011;56125;52.242;4.756;2023-04-19T02:47:20;2.92;;;2.50;;
69053;SDS011;56125;52.242;4.756;2023-04-19T02:52:21;4.25;;;2.40;;
69053;SDS011;56125;52.242;4.756;2023-04-19T02:57:22;3.03;;;2.47;;
69053;SDS011;56125;52.242;4.756;2023-04-19T03:02:24;3.53;;;2.70;;
69053;SDS011;56125;52.242;4.756;2023-04-19T03:07:25;3.65;;;2.50;;
69053;SDS011;56125;52.242;4.756;2023-04-19T03:12:26;4.25;;;2.60;;
69053;SDS011;56125;52.242;4.756;2023-04-19T03:17:27;3.60;;;2.60;;
69053;SDS011;56125;52.242;4.756;2023-04-19T03:22:28;3.10;;;2.38;;
69053;SDS011;56125;52.242;4.756;2023-04-19T03:27:29;3.72;;;2.80;;
69053;SDS011;56125;52.242;4.756;2023-04-19T03:32:30;3.58;;;2.85;;
69053;SDS011;56125;52.242;4.756;2023-04-19T03:37:31;3.78;;;2.35;;
69053;SDS011;56125;52.242;4.756;2023-04-19T03:42:32;4.38;;;2.70;;
69053;SDS011;56125;52.242;4.756;2023-04-19T03:47:33;4.00;;;2.67;;
69053;SDS011;56125;52.242;4.756;2023-04-19T03:52:34;3.33;;;2.60;;
69053;SDS011;56125;52.242;4.756;2023-04-19T03:57:36;3.40;;;2.60;;
69053;SDS011;56125;52.242;4.756;2023-04-19T04:02:37;3.58;;;2.30;;
69053;SDS011;56125;52.242;4.756;2023-04-19T04:07:39;4.95;;;2.60;;
69053;SDS011;56125;52.242;4.756;2023-04-19T04:12:40;4.85;;;2.58;;
69053;SDS011;56125;52.242;4.756;2023-04-19T04:17:41;3.88;;;2.75;;
69053;SDS011;56125;52.242;4.756;2023-04-19T04:22:42;4.57;;;2.85;;
69053;SDS011;56125;52.242;4.756;2023-04-19T04:27:43;4.60;;;2.42;;
69053;SDS011;56125;52.242;4.756;2023-04-19T04:32:45;5.50;;;3.08;;
69053;SDS011;56125;52.242;4.756;2023-04-19T04:37:46;3.88;;;2.65;;
69053;SDS011;56125;52.242;4.756;2023-04-19T04:42:48;5.18;;;2.72;;
69053;SDS011;56125;52.242;4.756;2023-04-19T04:47:52;3.85;;;2.70;;
69053;SDS011;56125;52.242;4.756;2023-04-19T04:52:53;4.10;;;2.88;;
69053;SDS011;56125;52.242;4.756;2023-04-19T04:57:54;4.10;;;2.42;;
69053;SDS011;56125;52.242;4.756;2023-04-19T05:02:55;5.13;;;3.00;;
69053;SDS011;56125;52.242;4.756;2023-04-19T05:07:56;3.88;;;3.00;;
69053;SDS011;56125;52.242;4.756;2023-04-19T05:12:57;5.95;;;2.50;;
69053;SDS011;56125;52.242;4.756;2023-04-19T05:18:00;6.95;;;4.35;;
69053;SDS011;56125;52.242;4.756;2023-04-19T05:23:02;7.85;;;3.58;;
69053;SDS011;56125;52.242;4.756;2023-04-19T05:28:03;7.60;;;3.70;;
69053;SDS011;56125;52.242;4.756;2023-04-19T05:33:04;6.78;;;3.80;;
69053;SDS011;56125;52.242;4.756;2023-04-19T05:38:05;6.97;;;3.38;;
69053;SDS011;56125;52.242;4.756;2023-04-19T05:43:06;5.80;;;3.05;;
69053;SDS011;56125;52.242;4.756;2023-04-19T05:48:07;4.30;;;2.60;;
69053;SDS011;56125;52.242;4.756;2023-04-19T05:53:08;6.28;;;3.00;;
69053;SDS011;56125;52.242;4.756;2023-04-19T05:58:09;4.82;;;3.00;;
69053;SDS011;56125;52.242;4.756;2023-04-19T06:03:10;5.93;;;3.00;;
69053;SDS011;56125;52.242;4.756;2023-04-19T06:08:11;5.15;;;3.10;;
69053;SDS011;56125;52.242;4.756;2023-04-19T06:13:15;4.43;;;2.60;;
69053;SDS011;56125;52.242;4.756;2023-04-19T06:18:16;5.25;;;3.20;;
69053;SDS011;56125;52.242;4.756;2023-04-19T06:23:17;4.15;;;2.40;;
69053;SDS011;56125;52.242;4.756;2023-04-19T06:28:18;3.67;;;2.92;;
69053;SDS011;56125;52.242;4.756;2023-04-19T06:33:19;6.07;;;2.78;;
69053;SDS011;56125;52.242;4.756;2023-04-19T06:38:20;3.97;;;2.38;;
69053;SDS011;56125;52.242;4.756;2023-04-19T06:43:21;3.53;;;2.33;;
69053;SDS011;56125;52.242;4.756;2023-04-19T06:48:23;2.80;;;2.20;;
69053;SDS011;56125;52.242;4.756;2023-04-19T06:53:25;4.30;;;2.38;;
69053;SDS011;56125;52.242;4.756;2023-04-19T06:58:27;2.93;;;2.40;;
69053;SDS011;56125;52.242;4.756;2023-04-19T07:03:28;4.50;;;2.65;;
69053;SDS011;56125;52.242;4.756;2023-04-19T07:08:29;5.83;;;2.33;;
69053;SDS011;56125;52.242;4.756;2023-04-19T07:13:30;6.47;;;2.50;;
69053;SDS011;56125;52.242;4.756;2023-04-19T07:18:31;3.30;;;2.10;;
69053;SDS011;56125;52.242;4.756;2023-04-19T07:23:32;5.57;;;2.40;;
69053;SDS011;56125;52.242;4.756;2023-04-19T07:28:33;3.20;;;2.20;;
69053;SDS011;56125;52.242;4.756;2023-04-19T07:33:34;5.95;;;2.35;;
69053;SDS011;56125;52.242;4.756;2023-04-19T07:38:35;4.83;;;2.43;;
69053;SDS011;56125;52.242;4.756;2023-04-19T07:43:36;4.72;;;2.28;;
69053;SDS011;56125;52.242;4.756;2023-04-19T07:48:37;3.03;;;2.17;;
69053;SDS011;56125;52.242;4.756;2023-04-19T07:53:39;3.10;;;2.08;;
69053;SDS011;56125;52.242;4.756;2023-04-19T07:58:41;3.43;;;2.00;;
69053;SDS011;56125;52.242;4.756;2023-04-19T08:03:42;2.95;;;2.10;;
69053;SDS011;56125;52.242;4.756;2023-04-19T08:08:43;2.47;;;2.03;;
69053;SDS011;56125;52.242;4.756;2023-04-19T08:13:44;3.28;;;2.00;;
69053;SDS011;56125;52.242;4.756;2023-04-19T08:18:45;2.53;;;2.00;;
69053;SDS011;56125;52.242;4.756;2023-04-19T08:23:47;2.83;;;1.80;;
69053;SDS011;56125;52.242;4.756;2023-04-19T08:28:48;2.70;;;1.90;;
69053;SDS011;56125;52.242;4.756;2023-04-19T08:33:51;4.15;;;1.90;;
69053;SDS011;56125;52.242;4.756;2023-04-19T08:38:52;2.93;;;2.30;;
69053;SDS011;56125;52.242;4.756;2023-04-19T08:43:53;2.45;;;2.00;;
69053;SDS011;56125;52.242;4.756;2023-04-19T08:48:58;2.63;;;1.77;;
69053;SDS011;56125;52.242;4.756;2023-04-19T08:54:00;3.28;;;1.80;;
69053;SDS011;56125;52.242;4.756;2023-04-19T08:59:04;3.00;;;2.17;;
69053;SDS011;56125;52.242;4.756;2023-04-19T09:04:05;3.50;;;2.25;;
69053;SDS011;56125;52.242;4.756;2023-04-19T09:09:16;3.70;;;1.77;;
69053;SDS011;56125;52.242;4.756;2023-04-19T09:14:22;2.63;;;1.70;;
69053;SDS011;56125;52.242;4.756;2023-04-19T09:19:25;3.47;;;1.83;;
69053;SDS011;56125;52.242;4.756;2023-04-19T09:24:36;2.33;;;1.40;;
69053;SDS011;56125;52.242;4.756;2023-04-19T09:29:38;2.43;;;1.50;;
69053;SDS011;56125;52.242;4.756;2023-04-19T09:34:49;1.63;;;1.20;;
69053;SDS011;56125;52.242;4.756;2023-04-19T09:39:54;2.40;;;1.33;;
69053;SDS011;56125;52.242;4.756;2023-04-19T09:44:56;4.38;;;1.42;;
69053;SDS011;56125;52.242;4.756;2023-04-19T09:50:07;1.50;;;1.40;;
69053;SDS011;56125;52.242;4.756;2023-04-19T09:55:09;2.67;;;1.33;;
69053;SDS011;56125;52.242;4.756;2023-04-19T10:00:10;2.90;;;1.50;;
69053;SDS011;56125;52.242;4.756;2023-04-19T10:05:14;1.75;;;1.23;;
69053;SDS011;56125;52.242;4.756;2023-04-19T10:10:16;2.73;;;1.40;;
69053;SDS011;56125;52.242;4.756;2023-04-19T10:15:18;1.48;;;1.00;;
69053;SDS011;56125;52.242;4.756;2023-04-19T10:20:22;1.97;;;1.23;;
69053;SDS011;56125;52.242;4.756;2023-04-19T10:25:30;2.33;;;1.13;;
69053;SDS011;56125;52.242;4.756;2023-04-19T10:30:31;1.80;;;1.17;;
69053;SDS011;56125;52.242;4.756;2023-04-19T10:35:35;1.45;;;1.00;;
69053;SDS011;56125;52.242;4.756;2023-04-19T10:45:51;2.38;;;1.25;;
69053;SDS011;56125;52.242;4.756;2023-04-19T10:51:02;1.45;;;1.25;;
69053;SDS011;56125;52.242;4.756;2023-04-19T10:56:04;1.73;;;1.10;;
69053;SDS011;56125;52.242;4.756;2023-04-19T11:01:52;2.65;;;1.10;;
69053;SDS011;56125;52.242;4.756;2023-04-19T11:11:52;1.58;;;1.00;;
69053;SDS011;56125;52.242;4.756;2023-04-19T11:16:56;1.00;;;0.90;;
69053;SDS011;56125;52.242;4.756;2023-04-19T11:21:58;1.23;;;0.93;;
69053;SDS011;56125;52.242;4.756;2023-04-19T11:26:59;3.33;;;1.00;;
69053;SDS011;56125;52.242;4.756;2023-04-19T11:32:00;2.65;;;0.90;;
69053;SDS011;56125;52.242;4.756;2023-04-19T11:37:01;2.80;;;0.90;;
69053;SDS011;56125;52.242;4.756;2023-04-19T11:42:02;4.00;;;1.08;;
69053;SDS011;56125;52.242;4.756;2023-04-19T11:47:04;2.40;;;0.93;;
69053;SDS011;56125;52.242;4.756;2023-04-19T11:52:05;1.13;;;0.90;;
69053;SDS011;56125;52.242;4.756;2023-04-19T11:57:07;1.63;;;1.27;;
69053;SDS011;56125;52.242;4.756;2023-04-19T12:02:09;1.58;;;1.10;;
69053;SDS011;56125;52.242;4.756;2023-04-19T12:07:11;1.63;;;0.97;;
69053;SDS011;56125;52.242;4.756;2023-04-19T12:12:12;1.33;;;0.70;;
69053;SDS011;56125;52.242;4.756;2023-04-19T12:17:13;1.57;;;0.90;;
69053;SDS011;56125;52.242;4.756;2023-04-19T12:22:16;3.28;;;1.13;;
69053;SDS011;56125;52.242;4.756;2023-04-19T12:27:22;1.90;;;1.00;;
69053;SDS011;56125;52.242;4.756;2023-04-19T12:32:25;1.40;;;0.95;;
69053;SDS011;56125;52.242;4.756;2023-04-19T12:37:26;2.73;;;1.10;;
69053;SDS011;56125;52.242;4.756;2023-04-19T12:42:27;1.67;;;1.10;;
69053;SDS011;56125;52.242;4.756;2023-04-19T12:47:28;2.90;;;1.43;;
69053;SDS011;56125;52.242;4.756;2023-04-19T12:52:30;1.50;;;1.10;;
69053;SDS011;56125;52.242;4.756;2023-04-19T12:57:31;2.33;;;1.00;;
69053;SDS011;56125;52.242;4.756;2023-04-19T13:02:35;1.58;;;1.15;;
69053;SDS011;56125;52.242;4.756;2023-04-19T13:07:36;3.10;;;1.20;;
69053;SDS011;56125;52.242;4.756;2023-04-19T13:12:37;1.90;;;1.30;;
69053;SDS011;56125;52.242;4.756;2023-04-19T13:17:39;1.60;;;1.20;;
69053;SDS011;56125;52.242;4.756;2023-04-19T13:22:40;4.75;;;2.05;;
69053;SDS011;56125;52.242;4.756;2023-04-19T13:27:41;5.47;;;1.30;;
69053;SDS011;56125;52.242;4.756;2023-04-19T13:32:42;3.63;;;1.27;;
69053;SDS011;56125;52.242;4.756;2023-04-19T13:37:43;2.90;;;1.23;;
69053;SDS011;56125;52.242;4.756;2023-04-19T13:42:46;2.03;;;1.30;;
69053;SDS011;56125;52.242;4.756;2023-04-19T13:47:47;2.30;;;1.30;;
69053;SDS011;56125;52.242;4.756;2023-04-19T13:52:48;1.63;;;0.93;;
69053;SDS011;56125;52.242;4.756;2023-04-19T13:57:49;2.53;;;1.30;;
69053;SDS011;56125;52.242;4.756;2023-04-19T14:02:50;3.47;;;1.10;;
69053;SDS011;56125;52.242;4.756;2023-04-19T14:07:51;2.57;;;1.27;;
69053;SDS011;56125;52.242;4.756;2023-04-19T14:12:52;1.55;;;1.10;;
69053;SDS011;56125;52.242;4.756;2023-04-19T14:17:53;3.27;;;1.27;;
69053;SDS011;56125;52.242;4.756;2023-04-19T14:22:54;3.22;;;1.20;;
69053;SDS011;56125;52.242;4.756;2023-04-19T14:27:58;2.43;;;1.10;;
69053;SDS011;56125;52.242;4.756;2023-04-19T14:32:59;1.50;;;1.10;;
69053;SDS011;56125;52.242;4.756;2023-04-19T14:38:00;1.87;;;0.93;;
69053;SDS011;56125;52.242;4.756;2023-04-19T14:43:01;2.42;;;1.00;;
69053;SDS011;56125;52.242;4.756;2023-04-19T14:48:02;2.20;;;0.83;;
69053;SDS011;56125;52.242;4.756;2023-04-19T14:53:03;2.17;;;1.02;;
69053;SDS011;56125;52.242;4.756;2023-04-19T14:58:04;2.33;;;0.90;;
69053;SDS011;56125;52.242;4.756;2023-04-19T15:03:05;2.13;;;0.93;;
69053;SDS011;56125;52.242;4.756;2023-04-19T15:08:06;2.63;;;1.30;;
69053;SDS011;56125;52.242;4.756;2023-04-19T15:13:07;2.75;;;1.10;;
69053;SDS011;56125;52.242;4.756;2023-04-19T15:18:08;1.23;;;0.90;;
69053;SDS011;56125;52.242;4.756;2023-04-19T15:23:09;1.42;;;1.00;;
69053;SDS011;56125;52.242;4.756;2023-04-19T15:28:10;1.30;;;1.00;;
69053;SDS011;56125;52.242;4.756;2023-04-19T15:33:11;2.63;;;0.80;;
69053;SDS011;56125;52.242;4.756;2023-04-19T15:38:12;2.17;;;1.20;;
69053;SDS011;56125;52.242;4.756;2023-04-19T15:43:13;3.55;;;1.00;;
69053;SDS011;56125;52.242;4.756;2023-04-19T15:48:14;1.30;;;1.00;;
69053;SDS011;56125;52.242;4.756;2023-04-19T15:53:15;1.10;;;0.70;;
69053;SDS011;56125;52.242;4.756;2023-04-19T15:58:17;1.73;;;0.93;;
69053;SDS011;56125;52.242;4.756;2023-04-19T16:03:18;3.30;;;0.90;;
69053;SDS011;56125;52.242;4.756;2023-04-19T16:08:19;1.60;;;1.00;;
69053;SDS011;56125;52.242;4.756;2023-04-19T16:13:21;1.88;;;1.00;;
69053;SDS011;56125;52.242;4.756;2023-04-19T16:18:22;1.70;;;1.10;;
69053;SDS011;56125;52.242;4.756;2023-04-19T16:23:23;0.90;;;0.65;;
69053;SDS011;56125;52.242;4.756;2023-04-19T16:28:24;1.30;;;0.80;;
69053;SDS011;56125;52.242;4.756;2023-04-19T16:33:25;2.47;;;0.80;;
69053;SDS011;56125;52.242;4.756;2023-04-19T16:38:26;2.70;;;0.80;;
69053;SDS011;56125;52.242;4.756;2023-04-19T16:43:27;3.40;;;1.02;;
69053;SDS011;56125;52.242;4.756;2023-04-19T16:48:28;1.35;;;0.90;;
69053;SDS011;56125;52.242;4.756;2023-04-19T16:53:29;1.98;;;0.95;;
69053;SDS011;56125;52.242;4.756;2023-04-19T16:58:31;1.73;;;1.00;;
69053;SDS011;56125;52.242;4.756;2023-04-19T17:03:32;1.10;;;0.90;;
69053;SDS011;56125;52.242;4.756;2023-04-19T17:08:34;1.65;;;0.98;;
69053;SDS011;56125;52.242;4.756;2023-04-19T17:13:37;1.90;;;0.97;;
69053;SDS011;56125;52.242;4.756;2023-04-19T17:18:38;1.70;;;0.90;;
69053;SDS011;56125;52.242;4.756;2023-04-19T17:23:39;1.30;;;0.80;;
69053;SDS011;56125;52.242;4.756;2023-04-19T17:28:40;2.08;;;1.20;;
69053;SDS011;56125;52.242;4.756;2023-04-19T17:33:41;1.80;;;0.87;;
69053;SDS011;56125;52.242;4.756;2023-04-19T17:38:42;1.63;;;1.20;;
69053;SDS011;56125;52.242;4.756;2023-04-19T17:43:44;1.27;;;1.00;;
69053;SDS011;56125;52.242;4.756;2023-04-19T17:48:46;1.38;;;1.00;;
69053;SDS011;56125;52.242;4.756;2023-04-19T17:53:49;1.00;;;0.90;;
69053;SDS011;56125;52.242;4.756;2023-04-19T17:58:57;1.35;;;0.82;;
69053;SDS011;56125;52.242;4.756;2023-04-19T18:04:00;2.23;;;1.00;;
69053;SDS011;56125;52.242;4.756;2023-04-19T18:09:02;2.45;;;1.10;;
69053;SDS011;56125;52.242;4.756;2023-04-19T18:14:03;2.83;;;0.97;;
69053;SDS011;56125;52.242;4.756;2023-04-19T18:19:04;3.17;;;1.10;;
69053;SDS011;56125;52.242;4.756;2023-04-19T18:24:05;1.73;;;1.10;;
69053;SDS011;56125;52.242;4.756;2023-04-19T18:29:07;3.35;;;1.20;;
69053;SDS011;56125;52.242;4.756;2023-04-19T18:34:08;4.00;;;1.03;;
69053;SDS011;56125;52.242;4.756;2023-04-19T18:39:09;2.63;;;1.20;;
69053;SDS011;56125;52.242;4.756;2023-04-19T18:44:12;2.37;;;1.20;;
69053;SDS011;56125;52.242;4.756;2023-04-19T18:49:13;1.63;;;0.80;;
69053;SDS011;56125;52.242;4.756;2023-04-19T18:54:14;1.60;;;0.90;;
69053;SDS011;56125;52.242;4.756;2023-04-19T18:59:15;1.83;;;0.98;;
69053;SDS011;56125;52.242;4.756;2023-04-19T19:04:20;2.67;;;0.97;;
69053;SDS011;56125;52.242;4.756;2023-04-19T19:09:22;3.10;;;0.90;;
69053;SDS011;56125;52.242;4.756;2023-04-19T19:14:23;1.50;;;0.90;;
69053;SDS011;56125;52.242;4.756;2023-04-19T19:19:24;2.15;;;1.10;;
69053;SDS011;56125;52.242;4.756;2023-04-19T19:24:25;3.23;;;1.23;;
69053;SDS011;56125;52.242;4.756;2023-04-19T19:29:26;2.38;;;1.00;;
69053;SDS011;56125;52.242;4.756;2023-04-19T19:34:27;2.70;;;1.20;;
69053;SDS011;56125;52.242;4.756;2023-04-19T19:39:28;1.42;;;1.23;;
69053;SDS011;56125;52.242;4.756;2023-04-19T19:44:30;1.97;;;1.00;;
69053;SDS011;56125;52.242;4.756;2023-04-19T19:49:31;1.15;;;0.80;;
69053;SDS011;56125;52.242;4.756;2023-04-19T19:54:32;2.00;;;1.03;;
69053;SDS011;56125;52.242;4.756;2023-04-19T19:59:33;1.17;;;0.82;;
69053;SDS011;56125;52.242;4.756;2023-04-19T20:04:34;2.53;;;0.90;;
69053;SDS011;56125;52.242;4.756;2023-04-19T20:09:37;1.77;;;1.13;;
69053;SDS011;56125;52.242;4.756;2023-04-19T20:14:38;2.80;;;1.20;;
69053;SDS011;56125;52.242;4.756;2023-04-19T20:19:39;2.10;;;1.23;;
69053;SDS011;56125;52.242;4.756;2023-04-19T20:24:42;1.30;;;1.03;;
69053;SDS011;56125;52.242;4.756;2023-04-19T20:29:43;1.60;;;0.88;;
69053;SDS011;56125;52.242;4.756;2023-04-19T20:34:44;2.33;;;1.30;;
69053;SDS011;56125;52.242;4.756;2023-04-19T20:39:45;1.88;;;1.20;;
69053;SDS011;56125;52.242;4.756;2023-04-19T20:44:46;2.30;;;1.10;;
69053;SDS011;56125;52.242;4.756;2023-04-19T20:49:47;3.22;;;1.08;;
69053;SDS011;56125;52.242;4.756;2023-04-19T20:54:48;2.07;;;1.17;;
69053;SDS011;56125;52.242;4.756;2023-04-19T20:59:50;1.70;;;1.05;;
69053;SDS011;56125;52.242;4.756;2023-04-19T21:04:51;1.60;;;1.00;;
69053;SDS011;56125;52.242;4.756;2023-04-19T21:09:52;1.58;;;1.20;;
69053;SDS011;56125;52.242;4.756;2023-04-19T21:14:53;2.93;;;1.30;;
69053;SDS011;56125;52.242;4.756;2023-04-19T21:19:54;2.92;;;1.30;;
69053;SDS011;56125;52.242;4.756;2023-04-19T21:24:55;2.40;;;1.20;;
69053;SDS011;56125;52.242;4.756;2023-04-19T21:29:56;3.25;;;1.38;;
69053;SDS011;56125;52.242;4.756;2023-04-19T21:34:58;1.33;;;1.23;;
69053;SDS011;56125;52.242;4.756;2023-04-19T21:39:59;2.80;;;1.10;;
69053;SDS011;56125;52.242;4.756;2023-04-19T21:45:01;2.07;;;1.17;;
69053;SDS011;56125;52.242;4.756;2023-04-19T21:50:02;1.67;;;1.15;;
69053;SDS011;56125;52.242;4.756;2023-04-19T21:55:03;2.37;;;1.20;;
69053;SDS011;56125;52.242;4.756;2023-04-19T22:00:05;2.55;;;1.33;;
69053;SDS011;56125;52.242;4.756;2023-04-19T22:05:09;3.37;;;1.40;;
69053;SDS011;56125;52.242;4.756;2023-04-19T22:10:10;2.47;;;1.50;;
69053;SDS011;56125;52.242;4.756;2023-04-19T22:15:13;1.93;;;1.30;;
69053;SDS011;56125;52.242;4.756;2023-04-19T22:20:14;1.77;;;1.33;;
69053;SDS011;56125;52.242;4.756;2023-04-19T22:25:15;3.83;;;1.50;;
69053;SDS011;56125;52.242;4.756;2023-04-19T22:30:16;1.77;;;0.98;;
69053;SDS011;56125;52.242;4.756;2023-04-19T22:35:17;2.07;;;1.20;;
69053;SDS011;56125;52.242;4.756;2023-04-19T22:40:18;2.38;;;1.40;;
69053;SDS011;56125;52.242;4.756;2023-04-19T22:45:19;2.87;;;1.60;;
69053;SDS011;56125;52.242;4.756;2023-04-19T22:50:20;2.45;;;1.23;;
69053;SDS011;56125;52.242;4.756;2023-04-19T22:55:22;2.23;;;1.30;;
69053;SDS011;56125;52.242;4.756;2023-04-19T23:00:24;3.33;;;1.33;;
69053;SDS011;56125;52.242;4.756;2023-04-19T23:05:25;1.60;;;1.17;;
69053;SDS011;56125;52.242;4.756;2023-04-19T23:10:27;3.55;;;1.38;;
69053;SDS011;56125;52.242;4.756;2023-04-19T23:15:28;2.67;;;1.10;;
69053;SDS011;56125;52.242;4.756;2023-04-19T23:20:29;2.08;;;1.40;;
69053;SDS011;56125;52.242;4.756;2023-04-19T23:25:31;1.80;;;1.07;;
69053;SDS011;56125;52.242;4.756;2023-04-19T23:30:32;1.83;;;1.25;;
69053;SDS011;56125;52.242;4.756;2023-04-19T23:35:33;2.33;;;1.50;;
69053;SDS011;56125;52.242;4.756;2023-04-19T23:40:34;1.73;;;1.60;;
69053;SDS011;56125;52.242;4.756;2023-04-19T23:45:36;2.03;;;1.40;;
69053;SDS011;56125;52.242;4.756;2023-04-19T23:50:37;1.92;;;1.30;;
69053;SDS011;56125;52.242;4.756;2023-04-19T23:55:38;2.30;;;1.37;;
